createdAt,value
2022-09-05T00:00:19.069Z,69.23
2022-09-05T00:03:19.723Z,69.39
2022-09-05T00:06:11.423Z,69.75
2022-09-05T00:09:21.232Z,70.18
2022-09-05T00:12:09.934Z,70.14
2022-09-05T00:15:48.912Z,70.55
2022-09-05T00:24:33.003Z,70.73
2022-09-05T00:24:36.939Z,70.83
2022-09-05T00:26:26.146Z,70.87
2022-09-05T00:30:40.654Z,71.16
2022-09-05T00:32:59.727Z,71.30
2022-09-05T00:36:29.297Z,71.70
2022-09-05T00:39:37.991Z,72.14
2022-09-05T00:42:24.143Z,71.92
2022-09-05T00:45:16.954Z,71.74
2022-09-05T00:48:14.802Z,71.64
2022-09-05T00:51:44.128Z,71.84
2022-09-05T00:55:02.254Z,71.88
2022-09-05T00:58:15.037Z,71.99
2022-09-05T01:01:09.668Z,72.11
2022-09-05T01:04:15.589Z,72.41
2022-09-05T01:07:16.947Z,72.55
2022-09-05T01:10:34.917Z,72.86
2022-09-05T01:13:57.409Z,73.02
2022-09-05T01:17:26.759Z,72.98
2022-09-05T01:21:09.063Z,72.95
2022-09-05T01:24:06.297Z,73.08
2022-09-05T01:27:16.365Z,73.25
2022-09-05T01:30:40.159Z,74.06
2022-09-05T01:33:54.819Z,74.17
2022-09-05T01:37:33.785Z,74.52
2022-09-05T01:41:17.785Z,74.25
2022-09-05T01:44:19.461Z,74.19
2022-09-05T01:47:41.484Z,74.35
2022-09-05T01:50:54.065Z,74.30
2022-09-05T01:54:05.541Z,74.23
2022-09-05T01:57:37.530Z,74.62
2022-09-05T02:00:39.668Z,74.46
2022-09-05T02:04:07.215Z,74.79
2022-09-05T02:07:31.106Z,74.86
2022-09-05T02:11:03.113Z,75.19
2022-09-05T02:14:10.913Z,75.57
2022-09-05T02:17:27.409Z,75.58
2022-09-05T02:20:34.272Z,75.62
2022-09-05T02:23:41.025Z,75.72
2022-09-05T02:26:35.267Z,75.89
2022-09-05T02:29:38.604Z,76.11
2022-09-05T02:32:40.552Z,76.59
2022-09-05T02:35:54.656Z,76.71
2022-09-05T02:40:53.485Z,76.91
2022-09-05T02:45:12.047Z,76.85
2022-09-05T02:45:48.623Z,77.09
2022-09-05T02:48:40.497Z,77.17
2022-09-05T02:57:28.063Z,77.17
2022-09-05T02:57:36.862Z,77.07
2022-09-05T02:59:20.089Z,77.18
2022-09-05T03:02:53.079Z,77.16
2022-09-05T03:06:37.323Z,77.36
2022-09-05T03:10:04.390Z,77.39
2022-09-05T03:13:23.159Z,77.50
2022-09-05T03:16:47.543Z,77.58
2022-09-05T03:19:46.709Z,77.64
2022-09-05T03:23:03.497Z,77.50
2022-09-05T03:26:09.010Z,77.29
2022-09-05T03:29:25.549Z,77.40
2022-09-05T03:32:42.494Z,77.55
2022-09-05T03:36:24.863Z,77.54
2022-09-05T03:39:57.165Z,77.64
2022-09-05T03:43:19.419Z,77.76
2022-09-05T03:46:05.219Z,77.96
2022-09-05T03:52:42.848Z,78.09
2022-09-05T03:57:13.047Z,78.02
2022-09-05T03:57:25.905Z,78.13
2022-09-05T04:00:03.823Z,77.97
2022-09-05T04:08:08.060Z,78.01
2022-09-05T04:08:28.344Z,78.16
2022-09-05T04:10:04.211Z,78.20
2022-09-05T04:12:54.006Z,78.02
2022-09-05T04:15:47.474Z,78.17
2022-09-05T04:18:43.289Z,78.44
2022-09-05T04:21:33.982Z,78.49
2022-09-05T04:24:41.149Z,78.26
2022-09-05T04:27:48.319Z,78.51
2022-09-05T04:31:06.309Z,78.45
2022-09-05T04:34:31.321Z,78.52
2022-09-05T04:38:05.642Z,78.53
2022-09-05T04:41:39.449Z,78.70
2022-09-05T04:44:49.243Z,78.73
2022-09-05T04:47:43.638Z,78.85
2022-09-05T04:50:38.108Z,79.02
2022-09-05T04:54:23.792Z,78.86
2022-09-05T04:57:29.752Z,78.96
2022-09-05T05:05:22.289Z,78.80
2022-09-05T05:06:09.580Z,78.77
2022-09-05T05:07:29.069Z,78.95
2022-09-05T05:15:21.714Z,78.79
2022-09-05T05:18:11.990Z,78.55
2022-09-05T05:18:13.109Z,78.11
2022-09-05T05:21:13.112Z,77.50
2022-09-05T05:24:21.958Z,77.55
2022-09-05T05:27:37.954Z,77.39
2022-09-05T05:30:31.958Z,77.41
2022-09-05T05:33:25.923Z,77.36
2022-09-05T05:36:22.766Z,77.51
2022-09-05T05:39:14.930Z,77.31
2022-09-05T05:42:20.061Z,77.27
2022-09-05T05:45:28.476Z,77.30
2022-09-05T05:48:19.899Z,77.10
2022-09-05T05:52:02.262Z,77.15
2022-09-05T05:55:51.760Z,77.10
2022-09-05T05:58:58.240Z,76.96
2022-09-05T06:02:14.597Z,76.77
2022-09-05T06:05:55.423Z,76.78
2022-09-05T06:14:37.497Z,76.28
2022-09-05T06:15:06.828Z,76.35
2022-09-05T06:16:49.090Z,75.93
2022-09-05T06:22:04.714Z,74.83
2022-09-05T06:23:39.804Z,74.00
2022-09-05T06:26:40.509Z,73.61
2022-09-05T06:30:05.829Z,73.92
2022-09-05T06:33:24.642Z,73.34
2022-09-05T06:37:10.302Z,73.06
2022-09-05T06:40:18.309Z,72.34
2022-09-05T06:43:12.362Z,72.23
2022-09-05T06:46:06.978Z,71.77
2022-09-05T06:49:28.985Z,71.93
2022-09-05T06:52:54.894Z,71.32
2022-09-05T06:55:56.595Z,71.01
2022-09-05T06:59:33.847Z,69.70
2022-09-05T07:02:58.324Z,70.13
2022-09-05T07:05:55.755Z,69.89
2022-09-05T07:09:05.468Z,69.87
2022-09-05T07:12:17.344Z,68.73
2022-09-05T07:15:33.505Z,69.24
2022-09-05T07:19:04.744Z,68.94
2022-09-05T07:22:05.417Z,67.53
2022-09-05T07:25:11.014Z,67.81
2022-09-05T07:28:29.163Z,67.45
2022-09-05T07:31:27.695Z,67.32
2022-09-05T07:34:32.873Z,66.63
2022-09-05T07:37:38.451Z,66.38
2022-09-05T07:40:26.813Z,66.38
2022-09-05T07:43:20.000Z,66.41
2022-09-05T07:46:10.936Z,65.97
2022-09-05T07:49:16.650Z,65.47
2022-09-05T07:56:51.595Z,65.69
2022-09-05T07:57:03.162Z,65.51
2022-09-05T07:58:51.213Z,65.16
2022-09-05T08:01:39.640Z,64.64
2022-09-05T08:04:33.914Z,63.92
2022-09-05T08:07:48.689Z,63.17
2022-09-05T08:11:23.429Z,62.86
2022-09-05T08:14:43.464Z,62.13
2022-09-05T08:17:20.614Z,62.15
2022-09-05T08:20:33.847Z,61.58
2022-09-05T08:24:05.557Z,61.45
2022-09-05T08:27:06.604Z,60.20
2022-09-05T08:30:26.335Z,59.51
2022-09-05T08:33:20.712Z,56.49
2022-09-05T08:36:38.008Z,54.10
2022-09-05T08:39:29.216Z,52.77
2022-09-05T08:43:51.804Z,52.73
2022-09-05T08:46:42.291Z,52.19
2022-09-05T08:49:49.365Z,50.76
2022-09-05T08:52:51.157Z,50.61
2022-09-05T08:56:12.419Z,48.07
2022-09-05T08:59:31.654Z,45.03
2022-09-05T09:02:50.229Z,42.69
2022-09-05T09:06:14.069Z,42.46
2022-09-05T09:09:16.657Z,42.59
2022-09-05T09:12:51.706Z,41.57
2022-09-05T09:16:04.366Z,40.32
2022-09-05T09:18:49.600Z,38.43
2022-09-05T09:21:46.006Z,38.09
2022-09-05T09:25:09.218Z,38.48
2022-09-05T09:28:47.511Z,38.49
2022-09-05T09:31:39.490Z,38.89
2022-09-05T09:34:32.422Z,38.43
2022-09-05T09:37:59.335Z,38.12
2022-09-05T09:41:13.040Z,36.71
2022-09-05T09:44:36.195Z,35.82
2022-09-05T09:47:44.999Z,36.53
2022-09-05T09:50:58.499Z,36.29
2022-09-05T09:54:08.486Z,35.57
2022-09-05T09:57:44.467Z,34.97
2022-09-05T10:00:50.637Z,33.18
2022-09-05T10:10:34.295Z,33.19
2022-09-05T10:10:48.841Z,33.51
2022-09-05T10:11:54.722Z,33.65
2022-09-05T10:15:31.526Z,33.05
2022-09-05T10:18:36.846Z,32.76
2022-09-05T10:25:25.690Z,32.61
2022-09-05T10:28:39.689Z,31.93
2022-09-05T10:34:45.954Z,31.23
2022-09-05T10:35:31.244Z,30.43
2022-09-05T10:38:47.028Z,30.93
2022-09-05T10:42:10.279Z,31.49
2022-09-05T10:44:57.135Z,32.13
2022-09-05T10:48:20.139Z,31.65
2022-09-05T10:51:37.614Z,31.17
2022-09-05T10:54:44.916Z,31.57
2022-09-05T10:57:51.216Z,30.58
2022-09-05T11:02:21.865Z,31.29
2022-09-05T11:04:37.185Z,31.39
2022-09-05T11:07:42.378Z,31.45
2022-09-05T11:10:54.476Z,31.29
2022-09-05T11:13:56.248Z,31.78
2022-09-05T11:16:54.503Z,31.78
2022-09-05T11:19:47.169Z,31.42
2022-09-05T11:22:40.027Z,30.63
2022-09-05T11:25:40.091Z,30.23
2022-09-05T11:29:17.685Z,29.64
2022-09-05T11:35:52.973Z,30.14
2022-09-05T11:39:53.973Z,30.48
2022-09-05T11:43:22.553Z,30.77
2022-09-05T11:46:40.567Z,30.81
2022-09-05T11:49:47.713Z,30.98
2022-09-05T11:53:13.505Z,30.34
2022-09-05T11:56:17.090Z,29.76
2022-09-05T11:59:35.898Z,29.56
2022-09-05T12:02:49.169Z,30.37
2022-09-05T12:06:59.534Z,30.63
2022-09-05T12:10:05.779Z,31.39
2022-09-05T12:13:26.405Z,31.90
2022-09-05T12:16:29.292Z,30.79
2022-09-05T12:19:32.809Z,30.37
2022-09-05T12:22:38.962Z,30.18
2022-09-05T12:27:38.201Z,30.43
2022-09-05T12:29:29.236Z,29.96
2022-09-05T12:33:58.380Z,29.78
2022-09-05T12:36:06.213Z,29.38
2022-09-05T12:40:55.126Z,29.55
2022-09-05T12:43:46.298Z,29.27
2022-09-05T12:46:23.848Z,29.64
2022-09-05T12:49:37.325Z,29.25
2022-09-05T12:52:33.466Z,28.41
2022-09-05T12:55:38.589Z,28.05
2022-09-05T13:02:56.288Z,28.40
2022-09-05T13:03:09.052Z,28.63
2022-09-05T13:05:01.869Z,28.33
2022-09-05T13:07:57.971Z,28.62
2022-09-05T13:14:47.445Z,28.21
2022-09-05T13:14:57.342Z,28.40
2022-09-05T13:17:01.859Z,28.81
2022-09-05T13:19:51.353Z,28.83
2022-09-05T13:22:47.921Z,29.10
2022-09-05T13:25:36.583Z,29.06
2022-09-05T13:28:25.182Z,29.03
2022-09-05T13:37:59.203Z,27.73
2022-09-05T13:38:10.750Z,28.50
2022-09-05T13:41:28.430Z,28.28
2022-09-05T13:44:26.354Z,28.50
2022-09-05T13:48:04.630Z,28.48
2022-09-05T13:50:52.593Z,28.51
2022-09-05T13:53:53.508Z,28.67
2022-09-05T13:57:31.583Z,28.52
2022-09-05T14:00:37.682Z,29.12
2022-09-05T14:04:00.039Z,28.36
2022-09-05T14:07:44.704Z,28.32
2022-09-05T14:11:06.752Z,28.42
2022-09-05T14:18:00.040Z,28.70
2022-09-05T14:21:17.506Z,29.01
2022-09-05T14:24:25.968Z,29.14
2022-09-05T14:27:25.893Z,29.05
2022-09-05T14:33:57.631Z,29.06
2022-09-05T14:37:35.409Z,29.23
2022-09-05T14:37:42.477Z,29.27
2022-09-05T14:39:49.420Z,29.19
2022-09-05T14:42:53.275Z,29.11
2022-09-05T14:45:52.282Z,29.42
2022-09-05T14:48:46.500Z,29.58
2022-09-05T14:51:29.813Z,29.36
2022-09-05T15:02:35.317Z,29.19
2022-09-05T15:02:53.439Z,29.13
2022-09-05T15:03:04.578Z,29.13
2022-09-05T15:05:39.530Z,28.96
2022-09-05T15:09:01.011Z,28.99
2022-09-05T15:12:25.203Z,28.96
2022-09-05T15:14:02.900Z,29.08
2022-09-05T15:16:35.050Z,28.95
2022-09-05T15:19:02.575Z,29.00
2022-09-05T15:21:40.048Z,28.99
2022-09-05T15:24:29.987Z,29.18
2022-09-05T15:27:03.956Z,29.31
2022-09-05T15:29:34.396Z,29.46
2022-09-05T15:32:12.823Z,29.65
2022-09-05T15:34:40.276Z,29.59
2022-09-05T15:37:39.955Z,29.38
2022-09-05T15:40:22.840Z,29.99
2022-09-05T15:43:00.311Z,29.97
2022-09-05T15:45:34.803Z,29.78
2022-09-05T15:48:12.540Z,30.05
2022-09-05T15:51:02.061Z,30.16
2022-09-05T15:53:36.107Z,30.08
2022-09-05T15:56:09.474Z,30.21
2022-09-05T15:58:54.949Z,30.42
2022-09-05T16:01:59.006Z,30.28
2022-09-05T16:08:56.838Z,30.45
2022-09-05T16:10:38.384Z,30.24
2022-09-05T16:10:48.418Z,30.22
2022-09-05T16:13:16.888Z,30.44
2022-09-05T16:23:13.232Z,30.42
2022-09-05T16:23:26.985Z,30.53
2022-09-05T16:23:28.688Z,30.83
2022-09-05T16:24:59.597Z,31.05
2022-09-05T16:28:04.306Z,31.31
2022-09-05T16:30:39.111Z,31.75
2022-09-05T16:33:31.341Z,32.17
2022-09-05T16:36:16.594Z,32.54
2022-09-05T16:39:06.967Z,32.61
2022-09-05T16:41:46.214Z,32.97
2022-09-05T16:44:35.570Z,33.32
2022-09-05T16:47:29.281Z,33.39
2022-09-05T16:50:03.706Z,33.93
2022-09-05T16:53:30.445Z,34.10
2022-09-05T16:56:12.845Z,34.57
2022-09-05T16:59:34.813Z,34.81
2022-09-05T17:02:36.201Z,35.12
2022-09-05T17:05:35.366Z,35.45
2022-09-05T17:08:25.231Z,35.95
2022-09-05T17:11:30.080Z,36.32
2022-09-05T17:15:01.554Z,36.31
2022-09-05T17:18:22.046Z,36.33
2022-09-05T17:20:36.554Z,36.36
2022-09-05T17:27:52.497Z,36.52
2022-09-05T17:29:31.062Z,37.99
2022-09-05T17:29:32.366Z,37.23
2022-09-05T17:32:00.698Z,38.23
2022-09-05T17:34:52.751Z,38.74
2022-09-05T17:38:30.055Z,39.14
2022-09-05T17:41:21.294Z,39.19
2022-09-05T17:44:15.485Z,39.52
2022-09-05T17:47:02.358Z,40.25
2022-09-05T17:49:45.519Z,40.65
2022-09-05T17:52:23.007Z,41.29
2022-09-05T17:54:53.060Z,40.97
2022-09-05T17:57:27.444Z,40.88
2022-09-05T18:00:17.101Z,41.00
2022-09-05T18:02:56.643Z,41.65
2022-09-05T18:06:00.750Z,42.28
2022-09-05T18:08:52.696Z,42.68
2022-09-05T18:11:25.649Z,42.95
2022-09-05T18:14:24.592Z,43.12
2022-09-05T18:17:36.523Z,43.74
2022-09-05T18:19:41.363Z,44.32
2022-09-05T18:22:25.998Z,44.91
2022-09-05T18:28:04.936Z,46.42
2022-09-05T18:33:53.639Z,47.50
2022-09-05T18:35:54.686Z,47.72
2022-09-05T18:38:50.538Z,48.13
2022-09-05T18:41:24.889Z,48.58
2022-09-05T18:44:13.993Z,48.88
2022-09-05T18:46:57.430Z,48.67
2022-09-05T18:50:25.476Z,48.92
2022-09-05T18:52:32.083Z,49.61
2022-09-05T18:56:12.659Z,50.08
2022-09-05T18:58:26.521Z,49.75
2022-09-05T19:00:55.379Z,49.78
2022-09-05T19:03:30.123Z,49.76
2022-09-05T19:06:34.701Z,50.59
2022-09-05T19:09:06.689Z,51.08
2022-09-05T19:12:15.819Z,51.41
2022-09-05T19:15:08.279Z,51.69
2022-09-05T19:17:46.870Z,51.76
2022-09-05T19:20:32.515Z,52.34
2022-09-05T19:23:13.187Z,53.03
2022-09-05T19:25:43.962Z,53.87
2022-09-05T19:36:46.685Z,53.74
2022-09-05T19:37:12.155Z,53.71
2022-09-05T19:37:13.593Z,53.89
2022-09-05T19:37:26.196Z,53.99
2022-09-05T19:44:47.583Z,54.43
2022-09-05T19:47:39.305Z,54.22
2022-09-05T19:47:40.610Z,54.25
2022-09-05T19:48:34.403Z,54.54
2022-09-05T19:51:17.410Z,54.73
2022-09-05T19:54:04.215Z,55.28
2022-09-05T19:56:46.484Z,55.18
2022-09-05T19:59:22.773Z,55.43
2022-09-05T20:01:52.475Z,55.84
2022-09-05T20:04:21.247Z,55.94
2022-09-05T20:06:49.980Z,55.69
2022-09-05T20:09:22.086Z,56.18
2022-09-05T20:11:58.293Z,56.52
2022-09-05T20:14:36.333Z,56.83
2022-09-05T20:17:29.210Z,57.00
2022-09-05T20:20:17.224Z,57.15
2022-09-05T20:22:50.913Z,56.75
2022-09-05T20:25:41.062Z,56.62
2022-09-05T20:28:24.172Z,56.67
2022-09-05T20:31:01.521Z,56.43
2022-09-05T20:33:45.329Z,56.59
2022-09-05T20:43:11.929Z,56.69
2022-09-05T20:43:24.178Z,57.78
2022-09-05T20:43:27.433Z,56.96
2022-09-05T20:44:51.476Z,57.92
2022-09-05T20:50:28.673Z,58.06
2022-09-05T20:54:10.689Z,58.40
2022-09-05T20:54:27.561Z,58.63
2022-09-05T20:56:22.993Z,59.00
2022-09-05T20:58:51.223Z,58.97
2022-09-05T21:01:23.219Z,59.26
2022-09-05T21:04:05.817Z,59.21
2022-09-05T21:06:37.116Z,59.13
2022-09-05T21:09:24.522Z,59.36
2022-09-05T21:11:55.889Z,59.67
2022-09-05T21:14:26.945Z,60.01
2022-09-05T21:17:09.613Z,60.56
2022-09-05T21:19:58.109Z,61.22
2022-09-05T21:22:43.222Z,61.47
2022-09-05T21:25:44.405Z,61.17
2022-09-05T21:28:37.256Z,61.26
2022-09-05T21:31:12.906Z,61.62
2022-09-05T21:33:47.638Z,62.22
2022-09-05T21:36:19.171Z,62.21
2022-09-05T21:38:46.719Z,62.18
2022-09-05T21:41:16.503Z,62.33
2022-09-05T21:47:34.798Z,62.55
2022-09-05T21:47:48.362Z,62.44
2022-09-05T21:49:23.734Z,62.74
2022-09-05T21:51:51.348Z,62.83
2022-09-05T21:59:14.177Z,62.99
2022-09-05T21:59:28.804Z,63.17
2022-09-05T22:00:15.762Z,63.21
2022-09-05T22:02:48.667Z,63.48
2022-09-05T22:05:16.959Z,63.61
2022-09-05T22:07:44.328Z,63.48
2022-09-05T22:10:12.089Z,63.10
2022-09-05T22:12:39.949Z,63.02
2022-09-05T22:15:27.978Z,62.86
2022-09-05T22:18:16.487Z,62.95
2022-09-05T22:20:51.789Z,63.10
2022-09-05T22:23:38.547Z,63.28
2022-09-05T22:26:06.254Z,63.83
2022-09-05T22:28:37.075Z,63.97
2022-09-05T22:31:07.645Z,64.20
2022-09-05T22:33:36.236Z,64.47
2022-09-05T22:36:04.355Z,64.57
2022-09-05T22:38:32.878Z,64.85
2022-09-05T22:41:00.457Z,65.14
2022-09-05T22:43:27.994Z,65.61
2022-09-05T22:45:56.385Z,65.85
2022-09-05T22:48:24.064Z,66.04
2022-09-05T22:50:51.926Z,66.44
2022-09-05T22:53:19.540Z,66.54
2022-09-05T22:55:57.132Z,67.01
2022-09-05T22:58:28.147Z,67.35
2022-09-05T23:00:55.937Z,67.51
2022-09-05T23:03:23.432Z,67.76
2022-09-05T23:05:51.953Z,68.06
2022-09-05T23:08:19.347Z,68.15
2022-09-05T23:10:46.786Z,68.46
2022-09-05T23:13:14.278Z,68.74
2022-09-05T23:15:44.483Z,68.91
2022-09-05T23:18:11.897Z,69.04
2022-09-05T23:20:39.426Z,69.32
2022-09-05T23:23:07.278Z,69.51
2022-09-05T23:25:35.840Z,69.65
2022-09-05T23:28:08.506Z,69.97
2022-09-05T23:30:37.282Z,70.32
2022-09-05T23:33:11.797Z,70.39
2022-09-05T23:35:39.627Z,70.67
2022-09-05T23:38:10.666Z,70.93
2022-09-05T23:40:38.884Z,71.03
2022-09-05T23:43:07.162Z,71.12
2022-09-05T23:45:36.242Z,71.15
2022-09-05T23:48:04.066Z,71.22
2022-09-05T23:50:31.401Z,71.21
2022-09-05T23:53:04.280Z,71.20
2022-09-05T23:55:32.401Z,71.38
2022-09-05T23:58:00.041Z,71.31
